sensor_id;sensor_type;location;lat;lon;timestamp;pressure;altitude;pressure_sealevel;temperature;humidity
38054;BME280;23859;50.672;7.164;2022-10-26T00:00:48;100637.78;;;13.57;100.00
38054;BME280;23859;50.672;7.164;2022-10-26T00:03:14;100631.16;;;13.61;100.00
38054;BME280;23859;50.672;7.164;2022-10-26T00:05:41;100626.47;;;13.63;100.00
38054;BME280;23859;50.672;7.164;2022-10-26T00:08:07;100627.31;;;13.81;99.67
38054;BME280;23859;50.672;7.164;2022-10-26T00:10:36;100630.38;;;13.69;100.00
38054;BME280;23859;50.672;7.164;2022-10-26T00:13:03;100623.03;;;13.71;100.00
38054;BME280;23859;50.672;7.164;2022-10-26T00:15:30;100629.47;;;13.60;100.00
38054;BME280;23859;50.672;7.164;2022-10-26T00:17:57;100623.59;;;13.57;100.00
38054;BME280;23859;50.672;7.164;2022-10-26T00:20:23;100620.06;;;13.56;100.00
38054;BME280;23859;50.672;7.164;2022-10-26T00:22:49;100628.63;;;13.60;100.00
38054;BME280;23859;50.672;7.164;2022-10-26T00:25:15;100627.66;;;13.86;100.00
38054;BME280;23859;50.672;7.164;2022-10-26T00:27:41;100619.13;;;13.83;100.00
38054;BME280;23859;50.672;7.164;2022-10-26T00:30:08;100619.19;;;13.91;99.28
38054;BME280;23859;50.672;7.164;2022-10-26T00:32:34;100635.16;;;14.08;97.90
38054;BME280;23859;50.672;7.164;2022-10-26T00:35:00;100625.47;;;14.07;97.86
38054;BME280;23859;50.672;7.164;2022-10-26T00:37:28;100634.03;;;14.10;97.67
38054;BME280;23859;50.672;7.164;2022-10-26T00:39:54;100631.72;;;14.15;97.18
38054;BME280;23859;50.672;7.164;2022-10-26T00:42:21;100637.28;;;14.22;96.76
38054;BME280;23859;50.672;7.164;2022-10-26T00:47:30;100632.53;;;14.41;96.06
38054;BME280;23859;50.672;7.164;2022-10-26T00:50:35;100621.59;;;14.27;96.78
38054;BME280;23859;50.672;7.164;2022-10-26T00:52:53;100623.75;;;14.23;97.23
38054;BME280;23859;50.672;7.164;2022-10-26T00:55:23;100623.31;;;14.36;97.37
38054;BME280;23859;50.672;7.164;2022-10-26T00:57:53;100628.09;;;14.24;97.71
38054;BME280;23859;50.672;7.164;2022-10-26T01:00:19;100622.97;;;14.31;97.03
38054;BME280;23859;50.672;7.164;2022-10-26T01:02:47;100631.94;;;14.22;97.37
38054;BME280;23859;50.672;7.164;2022-10-26T01:05:16;100632.78;;;14.05;98.95
38054;BME280;23859;50.672;7.164;2022-10-26T01:07:44;100632.13;;;14.03;99.68
38054;BME280;23859;50.672;7.164;2022-10-26T01:10:10;100626.78;;;14.03;99.40
38054;BME280;23859;50.672;7.164;2022-10-26T01:12:38;100620.13;;;14.07;98.86
38054;BME280;23859;50.672;7.164;2022-10-26T01:15:05;100611.09;;;14.08;99.09
38054;BME280;23859;50.672;7.164;2022-10-26T01:17:54;100603.72;;;14.27;97.54
38054;BME280;23859;50.672;7.164;2022-10-26T01:20:38;100604.97;;;14.41;96.23
38054;BME280;23859;50.672;7.164;2022-10-26T01:26:45;100602.94;;;14.35;97.19
38054;BME280;23859;50.672;7.164;2022-10-26T01:32:23;100589.22;;;14.38;96.89
38054;BME280;23859;50.672;7.164;2022-10-26T01:37:46;100586.25;;;14.41;96.43
38054;BME280;23859;50.672;7.164;2022-10-26T01:40:37;100579.41;;;14.46;96.28
38054;BME280;23859;50.672;7.164;2022-10-26T01:43:08;100577.59;;;14.47;96.54
38054;BME280;23859;50.672;7.164;2022-10-26T01:45:39;100579.91;;;14.50;95.84
38054;BME280;23859;50.672;7.164;2022-10-26T01:48:09;100581.91;;;14.48;95.97
38054;BME280;23859;50.672;7.164;2022-10-26T01:50:38;100584.72;;;14.38;96.76
38054;BME280;23859;50.672;7.164;2022-10-26T01:53:05;100585.22;;;14.34;97.47
38054;BME280;23859;50.672;7.164;2022-10-26T02:01:58;100579.97;;;14.58;95.71
38054;BME280;23859;50.672;7.164;2022-10-26T02:10:36;100580.28;;;14.55;96.65
38054;BME280;23859;50.672;7.164;2022-10-26T02:13:41;100571.41;;;14.54;96.73
38054;BME280;23859;50.672;7.164;2022-10-26T02:16:36;100573.28;;;14.69;96.34
38054;BME280;23859;50.672;7.164;2022-10-26T02:19:32;100571.44;;;14.62;97.55
38054;BME280;23859;50.672;7.164;2022-10-26T02:22:06;100572.91;;;14.49;99.16
38054;BME280;23859;50.672;7.164;2022-10-26T02:24:36;100575.22;;;14.44;99.82
38054;BME280;23859;50.672;7.164;2022-10-26T02:27:04;100577.25;;;14.50;99.61
38054;BME280;23859;50.672;7.164;2022-10-26T02:29:32;100460.34;;;13.52;100.00
38054;BME280;23859;50.672;7.164;2022-10-26T02:32:01;100572.09;;;14.15;100.00
38054;BME280;23859;50.672;7.164;2022-10-26T02:34:28;100576.66;;;14.05;100.00
38054;BME280;23859;50.672;7.164;2022-10-26T02:36:58;100575.69;;;14.06;100.00
38054;BME280;23859;50.672;7.164;2022-10-26T02:39:26;100573.00;;;14.06;100.00
38054;BME280;23859;50.672;7.164;2022-10-26T02:41:55;100567.66;;;14.06;100.00
38054;BME280;23859;50.672;7.164;2022-10-26T02:44:27;100571.31;;;14.05;100.00
38054;BME280;23859;50.672;7.164;2022-10-26T02:46:55;100571.84;;;14.08;100.00
38054;BME280;23859;50.672;7.164;2022-10-26T02:49:21;100564.56;;;14.10;100.00
38054;BME280;23859;50.672;7.164;2022-10-26T02:52:05;100562.31;;;14.06;100.00
38054;BME280;23859;50.672;7.164;2022-10-26T02:57:14;100557.53;;;14.09;100.00
38054;BME280;23859;50.672;7.164;2022-10-26T02:59:45;100560.63;;;14.30;100.00
38054;BME280;23859;50.672;7.164;2022-10-26T03:02:15;100553.88;;;14.18;100.00
38054;BME280;23859;50.672;7.164;2022-10-26T03:04:42;100562.59;;;14.20;100.00
38054;BME280;23859;50.672;7.164;2022-10-26T03:07:08;100558.34;;;14.10;100.00
38054;BME280;23859;50.672;7.164;2022-10-26T03:09:34;100556.88;;;14.15;100.00
38054;BME280;23859;50.672;7.164;2022-10-26T03:12:00;100566.41;;;14.18;100.00
38054;BME280;23859;50.672;7.164;2022-10-26T03:14:26;100563.31;;;14.05;100.00
38054;BME280;23859;50.672;7.164;2022-10-26T03:16:53;100560.91;;;13.94;100.00
38054;BME280;23859;50.672;7.164;2022-10-26T03:19:19;100552.59;;;13.97;100.00
38054;BME280;23859;50.672;7.164;2022-10-26T03:21:45;100556.16;;;14.05;100.00
38054;BME280;23859;50.672;7.164;2022-10-26T03:24:11;100564.47;;;14.02;100.00
38054;BME280;23859;50.672;7.164;2022-10-26T03:26:37;100569.03;;;14.10;100.00
38054;BME280;23859;50.672;7.164;2022-10-26T03:29:03;100560.88;;;14.11;100.00
38054;BME280;23859;50.672;7.164;2022-10-26T03:31:29;100569.97;;;14.01;100.00
38054;BME280;23859;50.672;7.164;2022-10-26T03:33:55;100560.63;;;14.05;100.00
38054;BME280;23859;50.672;7.164;2022-10-26T03:36:21;100565.97;;;14.05;100.00
38054;BME280;23859;50.672;7.164;2022-10-26T03:38:47;100565.88;;;13.89;100.00
38054;BME280;23859;50.672;7.164;2022-10-26T03:41:13;100568.00;;;13.78;100.00
38054;BME280;23859;50.672;7.164;2022-10-26T03:43:39;100562.56;;;13.87;100.00
38054;BME280;23859;50.672;7.164;2022-10-26T03:46:05;100569.84;;;13.77;100.00
38054;BME280;23859;50.672;7.164;2022-10-26T03:48:31;100572.56;;;13.85;100.00
38054;BME280;23859;50.672;7.164;2022-10-26T03:50:58;100566.50;;;13.83;100.00
38054;BME280;23859;50.672;7.164;2022-10-26T03:53:25;100566.84;;;13.80;100.00
38054;BME280;23859;50.672;7.164;2022-10-26T03:55:51;100567.19;;;13.77;100.00
38054;BME280;23859;50.672;7.164;2022-10-26T03:58:17;100566.94;;;13.71;100.00
38054;BME280;23859;50.672;7.164;2022-10-26T04:00:43;100563.47;;;13.78;100.00
38054;BME280;23859;50.672;7.164;2022-10-26T04:03:09;100564.59;;;13.68;100.00
38054;BME280;23859;50.672;7.164;2022-10-26T04:05:35;100560.63;;;13.72;100.00
38054;BME280;23859;50.672;7.164;2022-10-26T04:08:01;100571.88;;;13.58;100.00
38054;BME280;23859;50.672;7.164;2022-10-26T04:10:31;100569.09;;;13.67;100.00
38054;BME280;23859;50.672;7.164;2022-10-26T04:12:57;100569.34;;;13.56;100.00
38054;BME280;23859;50.672;7.164;2022-10-26T04:15:27;100570.28;;;13.47;100.00
38054;BME280;23859;50.672;7.164;2022-10-26T04:17:58;100564.66;;;13.50;100.00
38054;BME280;23859;50.672;7.164;2022-10-26T04:20:25;100562.97;;;13.49;100.00
38054;BME280;23859;50.672;7.164;2022-10-26T04:23:02;100574.31;;;13.51;100.00
38054;BME280;23859;50.672;7.164;2022-10-26T04:25:30;100568.59;;;13.46;100.00
38054;BME280;23859;50.672;7.164;2022-10-26T04:27:57;100564.69;;;13.58;100.00
38054;BME280;23859;50.672;7.164;2022-10-26T04:30:23;100565.06;;;13.63;100.00
38054;BME280;23859;50.672;7.164;2022-10-26T04:32:49;100563.63;;;13.69;100.00
38054;BME280;23859;50.672;7.164;2022-10-26T04:35:15;100565.41;;;13.68;100.00
38054;BME280;23859;50.672;7.164;2022-10-26T04:37:42;100568.34;;;13.75;100.00
38054;BME280;23859;50.672;7.164;2022-10-26T04:40:08;100574.78;;;13.72;100.00
38054;BME280;23859;50.672;7.164;2022-10-26T04:42:45;100570.72;;;13.60;100.00
38054;BME280;23859;50.672;7.164;2022-10-26T04:45:13;100572.66;;;13.50;100.00
38054;BME280;23859;50.672;7.164;2022-10-26T04:47:39;100563.97;;;13.48;100.00
38054;BME280;23859;50.672;7.164;2022-10-26T04:50:07;100560.91;;;13.43;100.00
38054;BME280;23859;50.672;7.164;2022-10-26T04:52:34;100558.25;;;13.43;100.00
38054;BME280;23859;50.672;7.164;2022-10-26T04:55:01;100556.59;;;13.68;100.00
38054;BME280;23859;50.672;7.164;2022-10-26T04:57:31;100553.66;;;13.53;100.00
38054;BME280;23859;50.672;7.164;2022-10-26T04:59:58;100553.13;;;13.50;100.00
38054;BME280;23859;50.672;7.164;2022-10-26T05:02:25;100548.31;;;13.53;100.00
38054;BME280;23859;50.672;7.164;2022-10-26T05:04:52;100546.31;;;13.55;100.00
38054;BME280;23859;50.672;7.164;2022-10-26T05:07:18;100549.09;;;13.46;100.00
38054;BME280;23859;50.672;7.164;2022-10-26T05:09:44;100544.38;;;13.40;100.00
38054;BME280;23859;50.672;7.164;2022-10-26T05:12:10;100549.91;;;13.46;100.00
38054;BME280;23859;50.672;7.164;2022-10-26T05:14:36;100550.25;;;13.43;100.00
38054;BME280;23859;50.672;7.164;2022-10-26T05:17:02;100552.38;;;13.40;100.00
38054;BME280;23859;50.672;7.164;2022-10-26T05:19:28;100544.00;;;13.35;100.00
38054;BME280;23859;50.672;7.164;2022-10-26T05:21:54;100536.44;;;13.30;100.00
38054;BME280;23859;50.672;7.164;2022-10-26T05:24:20;100538.94;;;13.32;100.00
38054;BME280;23859;50.672;7.164;2022-10-26T05:26:46;100538.88;;;13.41;100.00
38054;BME280;23859;50.672;7.164;2022-10-26T05:29:12;100542.03;;;13.37;100.00
38054;BME280;23859;50.672;7.164;2022-10-26T05:31:38;100541.34;;;13.35;100.00
38054;BME280;23859;50.672;7.164;2022-10-26T05:34:04;100533.31;;;13.35;100.00
38054;BME280;23859;50.672;7.164;2022-10-26T05:36:30;100533.00;;;13.38;100.00
38054;BME280;23859;50.672;7.164;2022-10-26T05:38:59;100533.16;;;13.36;100.00
38054;BME280;23859;50.672;7.164;2022-10-26T05:41:26;100432.97;;;12.82;100.00
38054;BME280;23859;50.672;7.164;2022-10-26T05:43:52;100549.38;;;13.60;100.00
38054;BME280;23859;50.672;7.164;2022-10-26T05:46:18;100555.84;;;13.58;100.00
38054;BME280;23859;50.672;7.164;2022-10-26T05:48:44;100558.97;;;13.53;100.00
38054;BME280;23859;50.672;7.164;2022-10-26T05:51:10;100563.34;;;13.54;100.00
38054;BME280;23859;50.672;7.164;2022-10-26T05:53:37;100568.72;;;13.62;100.00
38054;BME280;23859;50.672;7.164;2022-10-26T05:56:26;100564.06;;;13.64;100.00
38054;BME280;23859;50.672;7.164;2022-10-26T05:58:58;100562.28;;;13.73;100.00
38054;BME280;23859;50.672;7.164;2022-10-26T06:07:10;100568.59;;;13.64;100.00
38054;BME280;23859;50.672;7.164;2022-10-26T06:09:38;100573.84;;;13.56;100.00
38054;BME280;23859;50.672;7.164;2022-10-26T06:12:05;100583.59;;;13.65;100.00
38054;BME280;23859;50.672;7.164;2022-10-26T06:14:33;100582.22;;;13.61;100.00
38054;BME280;23859;50.672;7.164;2022-10-26T06:25:24;100466.44;;;12.76;100.00
38054;BME280;23859;50.672;7.164;2022-10-26T06:27:55;100590.50;;;13.50;100.00
38054;BME280;23859;50.672;7.164;2022-10-26T06:30:25;100610.16;;;13.49;100.00
38054;BME280;23859;50.672;7.164;2022-10-26T06:32:51;100603.69;;;13.69;100.00
38054;BME280;23859;50.672;7.164;2022-10-26T06:35:32;100600.16;;;13.68;100.00
38054;BME280;23859;50.672;7.164;2022-10-26T06:38:04;100598.78;;;13.64;100.00
38054;BME280;23859;50.672;7.164;2022-10-26T06:40:34;100602.34;;;13.73;100.00
38054;BME280;23859;50.672;7.164;2022-10-26T06:43:01;100594.88;;;13.76;100.00
38054;BME280;23859;50.672;7.164;2022-10-26T06:45:27;100605.03;;;13.98;100.00
38054;BME280;23859;50.672;7.164;2022-10-26T06:48:01;100600.34;;;14.00;100.00
38054;BME280;23859;50.672;7.164;2022-10-26T06:50:47;100596.88;;;14.07;100.00
38054;BME280;23859;50.672;7.164;2022-10-26T06:53:29;100604.34;;;13.96;100.00
38054;BME280;23859;50.672;7.164;2022-10-26T06:55:58;100609.38;;;13.99;100.00
38054;BME280;23859;50.672;7.164;2022-10-26T06:58:30;100612.31;;;14.13;100.00
38054;BME280;23859;50.672;7.164;2022-10-26T07:00:58;100613.72;;;14.17;100.00
38054;BME280;23859;50.672;7.164;2022-10-26T07:03:24;100616.53;;;14.16;100.00
38054;BME280;23859;50.672;7.164;2022-10-26T07:05:50;100613.28;;;14.30;100.00
38054;BME280;23859;50.672;7.164;2022-10-26T07:08:16;100625.22;;;14.18;100.00
38054;BME280;23859;50.672;7.164;2022-10-26T07:10:43;100617.22;;;14.18;100.00
38054;BME280;23859;50.672;7.164;2022-10-26T07:13:09;100627.94;;;14.26;100.00
38054;BME280;23859;50.672;7.164;2022-10-26T07:15:37;100635.56;;;14.13;100.00
38054;BME280;23859;50.672;7.164;2022-10-26T07:18:04;100639.06;;;14.13;100.00
38054;BME280;23859;50.672;7.164;2022-10-26T07:20:34;100640.66;;;14.06;100.00
38054;BME280;23859;50.672;7.164;2022-10-26T07:23:00;100638.00;;;14.06;100.00
38054;BME280;23859;50.672;7.164;2022-10-26T07:25:27;100631.53;;;14.09;100.00
38054;BME280;23859;50.672;7.164;2022-10-26T07:27:57;100645.91;;;14.16;100.00
38054;BME280;23859;50.672;7.164;2022-10-26T07:30:24;100654.47;;;14.19;100.00
38054;BME280;23859;50.672;7.164;2022-10-26T07:32:57;100646.16;;;14.22;100.00
38054;BME280;23859;50.672;7.164;2022-10-26T07:35:23;100640.94;;;14.21;100.00
38054;BME280;23859;50.672;7.164;2022-10-26T07:37:49;100644.38;;;14.39;100.00
38054;BME280;23859;50.672;7.164;2022-10-26T07:40:15;100656.41;;;14.35;100.00
38054;BME280;23859;50.672;7.164;2022-10-26T07:42:41;100661.13;;;14.41;100.00
38054;BME280;23859;50.672;7.164;2022-10-26T07:45:07;100669.97;;;14.41;100.00
38054;BME280;23859;50.672;7.164;2022-10-26T07:47:33;100661.75;;;14.35;100.00
38054;BME280;23859;50.672;7.164;2022-10-26T07:49:59;100657.06;;;14.37;100.00
38054;BME280;23859;50.672;7.164;2022-10-26T07:52:25;100659.88;;;14.61;100.00
38054;BME280;23859;50.672;7.164;2022-10-26T07:54:51;100654.53;;;14.61;100.00
38054;BME280;23859;50.672;7.164;2022-10-26T07:57:17;100657.22;;;14.68;100.00
38054;BME280;23859;50.672;7.164;2022-10-26T07:59:43;100656.72;;;14.65;100.00
38054;BME280;23859;50.672;7.164;2022-10-26T08:02:10;100645.16;;;14.64;100.00
38054;BME280;23859;50.672;7.164;2022-10-26T08:04:36;100647.13;;;14.55;100.00
38054;BME280;23859;50.672;7.164;2022-10-26T08:07:02;100636.72;;;14.44;100.00
38054;BME280;23859;50.672;7.164;2022-10-26T08:09:28;100639.22;;;14.45;100.00
38054;BME280;23859;50.672;7.164;2022-10-26T08:11:54;100629.22;;;14.47;100.00
38054;BME280;23859;50.672;7.164;2022-10-26T08:14:20;100632.22;;;14.44;100.00
38054;BME280;23859;50.672;7.164;2022-10-26T08:16:46;100640.34;;;14.68;100.00
38054;BME280;23859;50.672;7.164;2022-10-26T08:19:12;100640.03;;;14.71;100.00
38054;BME280;23859;50.672;7.164;2022-10-26T08:21:39;100641.72;;;14.80;100.00
38054;BME280;23859;50.672;7.164;2022-10-26T08:24:05;100647.91;;;14.80;100.00
38054;BME280;23859;50.672;7.164;2022-10-26T08:26:31;100649.94;;;14.78;100.00
38054;BME280;23859;50.672;7.164;2022-10-26T08:28:57;100663.66;;;14.91;100.00
38054;BME280;23859;50.672;7.164;2022-10-26T08:31:23;100664.56;;;15.08;100.00
38054;BME280;23859;50.672;7.164;2022-10-26T08:33:49;100677.38;;;15.30;100.00
38054;BME280;23859;50.672;7.164;2022-10-26T08:36:18;100680.22;;;15.36;100.00
38054;BME280;23859;50.672;7.164;2022-10-26T08:38:47;100674.56;;;15.47;100.00
38054;BME280;23859;50.672;7.164;2022-10-26T08:41:13;100685.78;;;15.58;100.00
38054;BME280;23859;50.672;7.164;2022-10-26T08:43:56;100675.91;;;15.75;100.00
38054;BME280;23859;50.672;7.164;2022-10-26T08:46:32;100674.38;;;15.96;100.00
38054;BME280;23859;50.672;7.164;2022-10-26T08:49:21;100685.94;;;16.12;99.94
38054;BME280;23859;50.672;7.164;2022-10-26T08:51:51;100685.94;;;16.20;97.17
38054;BME280;23859;50.672;7.164;2022-10-26T08:54:37;100694.97;;;16.43;97.25
38054;BME280;23859;50.672;7.164;2022-10-26T08:57:27;100686.09;;;16.89;93.25
38054;BME280;23859;50.672;7.164;2022-10-26T09:02:31;100680.06;;;16.87;93.59
38054;BME280;23859;50.672;7.164;2022-10-26T09:04:58;100680.75;;;16.81;94.35
38054;BME280;23859;50.672;7.164;2022-10-26T09:07:39;100680.41;;;16.84;94.42
38054;BME280;23859;50.672;7.164;2022-10-26T09:16:50;100690.75;;;16.57;96.69
38054;BME280;23859;50.672;7.164;2022-10-26T09:24:32;100705.00;;;16.65;96.06
38054;BME280;23859;50.672;7.164;2022-10-26T09:29:41;100700.06;;;16.76;95.93
38054;BME280;23859;50.672;7.164;2022-10-26T09:32:09;100698.44;;;17.06;96.33
38054;BME280;23859;50.672;7.164;2022-10-26T09:34:45;100710.97;;;17.96;91.21
38054;BME280;23859;50.672;7.164;2022-10-26T09:37:23;100713.59;;;17.82;88.51
38054;BME280;23859;50.672;7.164;2022-10-26T09:42:59;100712.41;;;18.06;89.30
38054;BME280;23859;50.672;7.164;2022-10-26T09:45:34;100714.22;;;18.65;85.87
38054;BME280;23859;50.672;7.164;2022-10-26T09:48:11;100718.63;;;18.44;86.26
38054;BME280;23859;50.672;7.164;2022-10-26T09:50:41;100717.81;;;18.43;85.06
38054;BME280;23859;50.672;7.164;2022-10-26T09:53:10;100718.19;;;18.98;84.74
38054;BME280;23859;50.672;7.164;2022-10-26T09:55:47;100719.81;;;19.42;82.95
38054;BME280;23859;50.672;7.164;2022-10-26T09:58:24;100721.09;;;20.23;77.28
38054;BME280;23859;50.672;7.164;2022-10-26T10:00:53;100717.91;;;21.48;73.23
38054;BME280;23859;50.672;7.164;2022-10-26T10:03:24;100719.91;;;22.89;66.64
38054;BME280;23859;50.672;7.164;2022-10-26T10:05:51;100723.16;;;24.35;61.22
38054;BME280;23859;50.672;7.164;2022-10-26T10:08:25;100734.44;;;24.81;58.18
38054;BME280;23859;50.672;7.164;2022-10-26T10:11:09;100734.19;;;23.85;62.93
38054;BME280;23859;50.672;7.164;2022-10-26T10:13:41;100752.41;;;23.22;64.46
38054;BME280;23859;50.672;7.164;2022-10-26T10:16:19;100746.97;;;23.28;63.45
38054;BME280;23859;50.672;7.164;2022-10-26T10:18:53;100756.97;;;23.34;63.74
38054;BME280;23859;50.672;7.164;2022-10-26T10:21:21;100762.88;;;24.85;59.06
38054;BME280;23859;50.672;7.164;2022-10-26T10:23:58;100763.41;;;24.51;59.48
38054;BME280;23859;50.672;7.164;2022-10-26T10:26:24;100772.03;;;23.17;64.31
38054;BME280;23859;50.672;7.164;2022-10-26T10:28:58;100773.69;;;22.02;67.80
38054;BME280;23859;50.672;7.164;2022-10-26T10:31:30;100775.72;;;21.81;70.14
38054;BME280;23859;50.672;7.164;2022-10-26T10:33:56;100777.22;;;21.49;72.21
38054;BME280;23859;50.672;7.164;2022-10-26T10:36:25;100780.97;;;21.48;71.14
38054;BME280;23859;50.672;7.164;2022-10-26T10:38:52;100788.09;;;20.82;73.94
38054;BME280;23859;50.672;7.164;2022-10-26T10:41:26;100797.94;;;21.23;72.50
38054;BME280;23859;50.672;7.164;2022-10-26T10:46:31;100796.69;;;20.92;73.88
38054;BME280;23859;50.672;7.164;2022-10-26T10:49:05;100799.81;;;20.47;76.69
38054;BME280;23859;50.672;7.164;2022-10-26T10:51:37;100799.78;;;20.41;77.57
38054;BME280;23859;50.672;7.164;2022-10-26T10:54:05;100803.03;;;20.57;76.93
38054;BME280;23859;50.672;7.164;2022-10-26T10:56:50;100817.22;;;20.66;77.19
38054;BME280;23859;50.672;7.164;2022-10-26T11:07:11;100821.59;;;20.87;76.90
38054;BME280;23859;50.672;7.164;2022-10-26T11:09:40;100825.06;;;20.81;77.01
38054;BME280;23859;50.672;7.164;2022-10-26T11:12:14;100822.81;;;20.85;76.94
38054;BME280;23859;50.672;7.164;2022-10-26T11:14:44;100821.94;;;21.05;75.56
38054;BME280;23859;50.672;7.164;2022-10-26T11:17:21;100821.00;;;20.92;75.47
38054;BME280;23859;50.672;7.164;2022-10-26T11:19:54;100822.84;;;21.19;75.98
38054;BME280;23859;50.672;7.164;2022-10-26T11:22:33;100829.63;;;21.36;75.00
38054;BME280;23859;50.672;7.164;2022-10-26T11:25:12;100818.72;;;22.16;71.52
38054;BME280;23859;50.672;7.164;2022-10-26T11:27:46;100822.56;;;22.54;69.39
38054;BME280;23859;50.672;7.164;2022-10-26T11:30:22;100822.16;;;22.44;69.85
38054;BME280;23859;50.672;7.164;2022-10-26T11:35:31;100826.31;;;22.91;70.20
38054;BME280;23859;50.672;7.164;2022-10-26T11:38:04;100828.59;;;22.94;66.44
38054;BME280;23859;50.672;7.164;2022-10-26T11:40:52;100822.84;;;23.54;64.41
38054;BME280;23859;50.672;7.164;2022-10-26T11:46:18;100809.31;;;25.14;59.13
38054;BME280;23859;50.672;7.164;2022-10-26T11:49:15;100811.94;;;25.56;56.29
38054;BME280;23859;50.672;7.164;2022-10-26T11:51:58;100815.19;;;25.47;56.35
38054;BME280;23859;50.672;7.164;2022-10-26T11:54:33;100810.53;;;24.70;58.13
38054;BME280;23859;50.672;7.164;2022-10-26T11:57:03;100817.94;;;24.25;58.71
38054;BME280;23859;50.672;7.164;2022-10-26T11:59:36;100825.16;;;24.07;60.09
38054;BME280;23859;50.672;7.164;2022-10-26T12:02:16;100824.13;;;24.02;60.98
38054;BME280;23859;50.672;7.164;2022-10-26T12:04:47;100827.81;;;23.83;62.48
38054;BME280;23859;50.672;7.164;2022-10-26T12:07:21;100827.28;;;23.42;61.04
38054;BME280;23859;50.672;7.164;2022-10-26T12:09:50;100823.97;;;23.27;63.17
38054;BME280;23859;50.672;7.164;2022-10-26T12:12:37;100833.63;;;23.04;61.99
38054;BME280;23859;50.672;7.164;2022-10-26T12:15:29;100837.75;;;22.48;63.09
38054;BME280;23859;50.672;7.164;2022-10-26T12:18:29;100840.47;;;22.42;63.37
38054;BME280;23859;50.672;7.164;2022-10-26T12:21:03;100846.72;;;22.36;62.87
38054;BME280;23859;50.672;7.164;2022-10-26T12:23:35;100843.28;;;22.08;65.54
38054;BME280;23859;50.672;7.164;2022-10-26T12:33:57;100856.13;;;21.87;68.45
38054;BME280;23859;50.672;7.164;2022-10-26T12:39:34;100859.09;;;22.05;68.05
38054;BME280;23859;50.672;7.164;2022-10-26T13:00:28;100876.16;;;22.77;62.75
38054;BME280;23859;50.672;7.164;2022-10-26T13:05:53;100878.88;;;22.77;63.02
38054;BME280;23859;50.672;7.164;2022-10-26T13:08:23;100876.75;;;22.67;62.44
38054;BME280;23859;50.672;7.164;2022-10-26T13:11:12;100878.22;;;22.69;62.10
38054;BME280;23859;50.672;7.164;2022-10-26T13:13:41;100878.66;;;22.85;64.44
38054;BME280;23859;50.672;7.164;2022-10-26T13:16:11;100885.16;;;23.04;63.98
38054;BME280;23859;50.672;7.164;2022-10-26T13:18:42;100886.78;;;22.98;64.36
38054;BME280;23859;50.672;7.164;2022-10-26T13:21:14;100886.44;;;23.01;62.87
38054;BME280;23859;50.672;7.164;2022-10-26T13:23:46;100886.59;;;23.00;62.72
38054;BME280;23859;50.672;7.164;2022-10-26T13:26:18;100878.03;;;22.90;63.46
38054;BME280;23859;50.672;7.164;2022-10-26T13:28:59;100884.31;;;23.03;61.61
38054;BME280;23859;50.672;7.164;2022-10-26T13:34:00;100891.19;;;22.93;62.66
38054;BME280;23859;50.672;7.164;2022-10-26T13:39:09;100895.56;;;22.75;62.16
38054;BME280;23859;50.672;7.164;2022-10-26T13:41:43;100907.25;;;22.81;62.55
38054;BME280;23859;50.672;7.164;2022-10-26T13:44:27;100906.59;;;22.92;61.99
38054;BME280;23859;50.672;7.164;2022-10-26T13:46:58;100905.16;;;22.83;61.46
38054;BME280;23859;50.672;7.164;2022-10-26T13:49:40;100907.22;;;22.75;61.50
38054;BME280;23859;50.672;7.164;2022-10-26T13:52:15;100918.69;;;22.58;62.10
38054;BME280;23859;50.672;7.164;2022-10-26T13:54:55;100911.19;;;22.73;62.53
38054;BME280;23859;50.672;7.164;2022-10-26T13:57:28;100916.00;;;22.71;63.92
38054;BME280;23859;50.672;7.164;2022-10-26T13:59:58;100913.91;;;22.73;61.61
38054;BME280;23859;50.672;7.164;2022-10-26T14:02:26;100905.19;;;23.09;60.42
38054;BME280;23859;50.672;7.164;2022-10-26T14:05:04;100910.97;;;23.71;60.65
38054;BME280;23859;50.672;7.164;2022-10-26T14:07:35;100913.75;;;24.08;56.42
38054;BME280;23859;50.672;7.164;2022-10-26T14:10:03;100918.34;;;24.20;58.88
38054;BME280;23859;50.672;7.164;2022-10-26T14:12:31;100924.31;;;24.35;56.02
38054;BME280;23859;50.672;7.164;2022-10-26T14:15:08;100930.72;;;23.97;58.07
38054;BME280;23859;50.672;7.164;2022-10-26T14:17:35;100931.88;;;23.77;59.50
38054;BME280;23859;50.672;7.164;2022-10-26T14:20:02;100939.00;;;23.26;61.90
38054;BME280;23859;50.672;7.164;2022-10-26T14:22:29;100943.75;;;22.98;60.70
38054;BME280;23859;50.672;7.164;2022-10-26T14:24:57;100939.34;;;22.72;61.68
38054;BME280;23859;50.672;7.164;2022-10-26T14:27:42;100942.59;;;22.35;65.05
38054;BME280;23859;50.672;7.164;2022-10-26T14:32:46;100957.22;;;22.00;63.80
38054;BME280;23859;50.672;7.164;2022-10-26T14:35:13;100956.34;;;22.00;63.67
38054;BME280;23859;50.672;7.164;2022-10-26T14:38:31;100968.59;;;21.89;65.54
38054;BME280;23859;50.672;7.164;2022-10-26T14:40:38;100964.78;;;21.77;65.98
38054;BME280;23859;50.672;7.164;2022-10-26T14:43:05;100966.28;;;21.52;68.96
38054;BME280;23859;50.672;7.164;2022-10-26T14:45:35;100965.50;;;21.38;71.20
38054;BME280;23859;50.672;7.164;2022-10-26T14:48:04;100953.66;;;21.11;73.46
38054;BME280;23859;50.672;7.164;2022-10-26T14:50:31;100957.59;;;20.88;74.15
38054;BME280;23859;50.672;7.164;2022-10-26T14:53:19;100959.59;;;20.79;75.82
38054;BME280;23859;50.672;7.164;2022-10-26T14:55:50;100959.59;;;20.65;75.18
38054;BME280;23859;50.672;7.164;2022-10-26T14:58:25;100958.22;;;20.55;76.73
38054;BME280;23859;50.672;7.164;2022-10-26T15:01:13;100968.06;;;20.41;78.83